createdAt,value
2018-11-02T00:02:16.935Z,5.33
2018-11-02T00:04:46.424Z,4.20
2018-11-02T00:07:15.819Z,5.03
2018-11-02T00:09:45.315Z,5.73
2018-11-02T00:12:14.924Z,6.37
2018-11-02T00:14:44.401Z,7.13
2018-11-02T00:17:13.930Z,6.47
2018-11-02T00:19:43.377Z,7.23
2018-11-02T00:22:12.899Z,7.70
2018-11-02T00:24:42.359Z,7.47
2018-11-02T00:27:11.822Z,7.60
2018-11-02T00:29:41.362Z,7.40
2018-11-02T00:32:10.763Z,7.30
2018-11-02T00:34:40.197Z,6.50
2018-11-02T00:37:09.832Z,6.27
2018-11-02T00:39:39.382Z,6.47
2018-11-02T00:42:08.994Z,6.20
2018-11-02T00:44:38.391Z,6.27
2018-11-02T00:47:07.718Z,7.80
2018-11-02T00:49:37.374Z,9.47
2018-11-02T00:52:07.099Z,7.73
2018-11-02T00:54:36.641Z,7.77
2018-11-02T00:57:06.298Z,7.23
2018-11-02T00:59:35.830Z,8.00
2018-11-02T01:02:05.564Z,6.10
2018-11-02T01:04:35.286Z,6.27
2018-11-02T01:07:04.823Z,6.93
2018-11-02T01:09:34.340Z,5.97
2018-11-02T01:12:03.929Z,7.07
2018-11-02T01:14:33.534Z,9.13
2018-11-02T01:17:03.146Z,6.53
2018-11-02T01:19:32.607Z,7.70
2018-11-02T01:22:03.791Z,5.97
2018-11-02T01:24:33.398Z,6.47
2018-11-02T01:27:02.962Z,5.97
2018-11-02T01:29:32.534Z,6.33
2018-11-02T01:32:02.126Z,6.83
2018-11-02T01:34:31.631Z,6.57
2018-11-02T01:37:01.110Z,7.00
2018-11-02T01:39:30.627Z,8.27
2018-11-02T01:42:00.149Z,6.83
2018-11-02T01:44:29.829Z,6.17
2018-11-02T01:46:59.451Z,6.50
2018-11-02T01:49:28.882Z,7.27
2018-11-02T01:51:58.337Z,5.87
2018-11-02T01:54:27.957Z,7.07
2018-11-02T01:56:57.466Z,7.93
2018-11-02T01:59:26.903Z,6.03
2018-11-02T02:01:56.563Z,6.77
2018-11-02T02:04:26.189Z,6.73
2018-11-02T02:06:55.727Z,6.93
2018-11-02T02:09:25.110Z,6.80
2018-11-02T02:11:54.553Z,6.13
2018-11-02T02:14:24.098Z,7.23
2018-11-02T02:16:53.806Z,5.67
2018-11-02T02:19:23.618Z,5.93
2018-11-02T02:21:53.227Z,5.93
2018-11-02T02:24:22.650Z,5.80
2018-11-02T02:26:52.066Z,5.37
2018-11-02T02:29:21.393Z,5.33
2018-11-02T02:31:51.026Z,5.13
2018-11-02T02:34:20.543Z,6.00
2018-11-02T02:36:49.980Z,6.60
2018-11-02T02:39:19.466Z,6.67
2018-11-02T02:41:49.079Z,4.87
2018-11-02T02:44:18.659Z,4.17
2018-11-02T02:46:48.309Z,4.80
2018-11-02T02:49:17.742Z,5.27
2018-11-02T02:51:47.283Z,4.00
2018-11-02T02:54:16.894Z,4.50
2018-11-02T02:56:46.322Z,3.93
2018-11-02T02:59:15.705Z,3.80
2018-11-02T03:01:45.286Z,4.10
2018-11-02T03:04:15.393Z,4.73
2018-11-02T03:06:44.919Z,4.57
2018-11-02T03:09:14.445Z,4.77
2018-11-02T03:11:43.955Z,4.37
2018-11-02T03:14:13.525Z,4.50
2018-11-02T03:16:43.135Z,6.07
2018-11-02T03:19:12.696Z,6.20
2018-11-02T03:21:42.149Z,5.90
2018-11-02T03:24:11.655Z,6.17
2018-11-02T03:26:41.175Z,6.73
2018-11-02T03:29:11.250Z,7.10
2018-11-02T03:31:40.676Z,8.53
2018-11-02T03:34:10.098Z,7.57
2018-11-02T03:36:39.751Z,6.77
2018-11-02T03:39:11.099Z,7.43
2018-11-02T03:41:40.722Z,8.10
2018-11-02T03:44:10.516Z,7.10
2018-11-02T03:46:41.877Z,8.40
2018-11-02T03:49:11.334Z,8.53
2018-11-02T03:51:40.926Z,7.73
2018-11-02T03:54:10.846Z,6.57
2018-11-02T03:56:40.899Z,7.50
2018-11-02T03:59:10.462Z,7.23
2018-11-02T04:01:39.980Z,6.93
2018-11-02T04:04:09.751Z,6.60
2018-11-02T04:06:39.269Z,6.40
2018-11-02T04:09:09.686Z,5.87
2018-11-02T04:11:39.460Z,5.00
2018-11-02T04:14:08.933Z,6.47
2018-11-02T04:16:38.446Z,5.67
2018-11-02T04:19:08.038Z,5.60
2018-11-02T04:21:41.273Z,5.80
2018-11-02T04:24:10.839Z,5.83
2018-11-02T04:26:40.733Z,6.30
2018-11-02T04:29:11.493Z,5.60
2018-11-02T04:31:41.070Z,6.40
2018-11-02T04:34:10.662Z,4.90
2018-11-02T04:36:40.040Z,5.40
2018-11-02T04:39:11.659Z,5.13
2018-11-02T04:41:41.074Z,4.33
2018-11-02T04:44:11.235Z,7.00
2018-11-02T04:46:40.967Z,4.47
2018-11-02T04:49:10.531Z,4.97
2018-11-02T04:51:41.359Z,5.07
2018-11-02T04:54:10.851Z,4.43
2018-11-02T04:56:40.448Z,5.63
2018-11-02T04:59:10.090Z,5.30
2018-11-02T05:01:39.733Z,4.63
2018-11-02T05:04:09.257Z,5.40
2018-11-02T05:06:38.662Z,4.87
2018-11-02T05:09:08.963Z,4.67
2018-11-02T05:11:39.495Z,4.10
2018-11-02T05:14:09.070Z,3.93
2018-11-02T05:16:38.587Z,4.40
2018-11-02T05:19:08.312Z,4.90
2018-11-02T05:21:37.857Z,4.90
2018-11-02T05:24:07.299Z,4.50
2018-11-02T05:26:37.018Z,3.87
2018-11-02T05:29:06.964Z,4.03
2018-11-02T05:31:36.318Z,3.40
2018-11-02T05:34:06.888Z,3.70
2018-11-02T05:36:36.478Z,3.57
2018-11-02T05:39:09.438Z,3.00
2018-11-02T05:41:38.932Z,3.30
2018-11-02T05:44:08.474Z,3.33
2018-11-02T05:46:38.186Z,3.10
2018-11-02T05:49:07.649Z,3.23
2018-11-02T05:51:37.291Z,3.37
2018-11-02T05:54:07.167Z,4.57
2018-11-02T05:56:36.703Z,5.17
2018-11-02T05:59:06.241Z,5.33
2018-11-02T06:01:35.927Z,4.53
2018-11-02T06:04:05.289Z,4.57
2018-11-02T06:06:34.842Z,4.70
2018-11-02T06:09:05.612Z,4.70
2018-11-02T06:11:35.197Z,4.80
2018-11-02T06:14:04.707Z,5.20
2018-11-02T06:16:34.150Z,4.93
2018-11-02T06:19:03.774Z,6.17
2018-11-02T06:21:33.330Z,5.10
2018-11-02T06:24:02.755Z,4.63
2018-11-02T06:26:32.309Z,8.43
2018-11-02T06:29:01.903Z,5.90
2018-11-02T06:31:31.433Z,6.07
2018-11-02T06:34:04.393Z,6.97
2018-11-02T06:36:35.371Z,6.90
2018-11-02T06:39:07.135Z,5.37
2018-11-02T06:41:37.054Z,6.77
2018-11-02T06:44:06.497Z,5.10
2018-11-02T06:46:36.056Z,5.50
2018-11-02T06:49:05.617Z,4.97
2018-11-02T06:51:35.144Z,5.60
2018-11-02T06:54:04.762Z,5.43
2018-11-02T06:56:34.122Z,6.13
2018-11-02T06:59:03.778Z,6.17
2018-11-02T07:01:33.250Z,6.33
2018-11-02T07:04:02.670Z,6.90
2018-11-02T07:06:32.002Z,7.33
2018-11-02T07:09:01.543Z,8.90
2018-11-02T07:11:31.081Z,7.90
2018-11-02T07:14:00.480Z,8.80
2018-11-02T07:16:29.954Z,8.50
2018-11-02T07:18:59.568Z,8.53
2018-11-02T07:21:30.744Z,15.50
2018-11-02T07:24:00.114Z,8.97
2018-11-02T07:26:29.729Z,8.00
2018-11-02T07:28:59.233Z,10.17
2018-11-02T07:31:28.762Z,9.50
2018-11-02T07:33:58.250Z,8.63
2018-11-02T07:36:27.731Z,7.87
2018-11-02T07:38:57.250Z,8.67
2018-11-02T07:41:26.791Z,8.50
2018-11-02T07:43:56.798Z,10.37
2018-11-02T07:46:26.589Z,9.27
2018-11-02T07:48:56.455Z,9.57
2018-11-02T07:51:26.388Z,10.03
2018-11-02T07:53:56.888Z,8.70
2018-11-02T07:56:26.548Z,10.40
2018-11-02T07:58:56.162Z,8.97
2018-11-02T08:01:25.742Z,9.27
2018-11-02T08:03:55.350Z,9.63
2018-11-02T08:06:24.866Z,8.77
2018-11-02T08:08:54.295Z,9.10
2018-11-02T08:11:23.960Z,9.53
2018-11-02T08:13:53.383Z,11.23
2018-11-02T08:16:22.801Z,9.20
2018-11-02T08:18:52.315Z,10.07
2018-11-02T08:21:21.718Z,8.57
2018-11-02T08:23:51.282Z,9.43
2018-11-02T08:26:20.797Z,9.10
2018-11-02T08:28:50.329Z,12.10
2018-11-02T08:31:19.803Z,10.40
2018-11-02T08:33:49.419Z,10.17
2018-11-02T08:36:18.836Z,9.67
2018-11-02T08:38:48.246Z,10.87
2018-11-02T08:41:18.165Z,10.03
2018-11-02T08:43:47.820Z,10.80
2018-11-02T08:46:17.486Z,11.43
2018-11-02T08:48:47.075Z,10.63
2018-11-02T08:51:16.504Z,10.87
2018-11-02T08:53:45.919Z,12.27
2018-11-02T08:56:15.325Z,12.60
2018-11-02T08:58:44.937Z,14.10
2018-11-02T09:01:14.275Z,12.67
2018-11-02T09:03:44.051Z,12.87
2018-11-02T09:06:13.678Z,13.83
2018-11-02T09:08:43.198Z,13.00
2018-11-02T09:11:12.764Z,14.27
2018-11-02T09:13:42.171Z,12.03
2018-11-02T09:16:11.678Z,12.27
2018-11-02T09:18:41.388Z,12.67
2018-11-02T09:21:10.837Z,12.37
2018-11-02T09:23:40.243Z,13.73
2018-11-02T09:26:09.705Z,12.00
2018-11-02T09:28:39.331Z,13.80
2018-11-02T09:31:08.941Z,14.53
2018-11-02T09:33:38.381Z,13.93
2018-11-02T09:36:07.778Z,14.57
2018-11-02T09:38:37.166Z,13.40
2018-11-02T09:41:07.064Z,13.17
2018-11-02T09:43:36.765Z,11.87
2018-11-02T09:46:06.691Z,12.60
2018-11-02T09:48:36.295Z,13.40
2018-11-02T09:51:06.063Z,13.20
2018-11-02T09:53:36.275Z,15.93
2018-11-02T09:56:06.126Z,16.80
2018-11-02T09:58:35.689Z,15.67
2018-11-02T10:01:05.606Z,15.30
2018-11-02T10:03:40.059Z,17.07
2018-11-02T10:06:09.522Z,17.60
2018-11-02T10:08:38.874Z,22.07
2018-11-02T10:11:08.401Z,18.73
2018-11-02T10:13:38.562Z,21.87
2018-11-02T10:16:08.623Z,20.57
2018-11-02T10:18:38.078Z,18.10
2018-11-02T10:21:07.587Z,15.67
2018-11-02T10:23:37.229Z,19.60
2018-11-02T10:26:06.970Z,19.57
2018-11-02T10:28:36.795Z,20.63
2018-11-02T10:31:08.557Z,23.47
2018-11-02T10:33:38.150Z,20.47
2018-11-02T10:36:07.748Z,20.27
2018-11-02T10:38:37.535Z,22.67
2018-11-02T10:41:07.738Z,31.33
2018-11-02T10:43:37.485Z,42.70
2018-11-02T10:46:07.100Z,40.63
2018-11-02T10:48:36.466Z,39.47
2018-11-02T10:51:06.238Z,41.27
2018-11-02T10:53:35.691Z,49.53
2018-11-02T10:56:05.292Z,45.30
2018-11-02T10:58:34.846Z,48.17
2018-11-02T11:01:09.525Z,49.07
2018-11-02T11:03:38.988Z,45.93
2018-11-02T11:06:08.453Z,47.77
2018-11-02T11:08:38.002Z,41.67
2018-11-02T11:11:07.647Z,45.57
2018-11-02T11:13:37.684Z,48.00
2018-11-02T11:16:06.592Z,51.27
2018-11-02T11:18:35.994Z,43.50
2018-11-02T11:21:05.694Z,46.13
2018-11-02T11:23:35.577Z,40.83
2018-11-02T11:26:05.359Z,50.13
2018-11-02T11:28:34.889Z,45.63
2018-11-02T11:31:04.729Z,41.50
2018-11-02T11:33:36.424Z,47.10
2018-11-02T11:36:06.226Z,48.77
2018-11-02T11:38:35.886Z,43.37
2018-11-02T11:41:05.528Z,47.63
2018-11-02T11:43:35.260Z,47.70
2018-11-02T11:46:04.903Z,43.47
2018-11-02T11:48:34.578Z,43.80
2018-11-02T11:51:04.248Z,45.17
2018-11-02T11:53:33.837Z,49.80
2018-11-02T11:56:03.371Z,45.73
2018-11-02T11:58:32.800Z,52.10
2018-11-02T12:01:02.266Z,54.10
2018-11-02T12:03:31.723Z,54.97
2018-11-02T12:06:01.350Z,50.03
2018-11-02T12:08:30.782Z,53.77
2018-11-02T12:11:00.338Z,53.90
2018-11-02T12:13:29.868Z,46.60
2018-11-02T12:15:59.383Z,47.70
2018-11-02T12:18:28.793Z,49.20
2018-11-02T12:20:58.210Z,48.67
2018-11-02T12:23:27.665Z,45.97
2018-11-02T12:25:57.281Z,41.67
2018-11-02T12:28:27.014Z,40.00
2018-11-02T12:30:56.394Z,41.17
2018-11-02T12:33:26.009Z,42.80
2018-11-02T12:35:55.542Z,46.73
2018-11-02T12:38:25.457Z,40.60
2018-11-02T12:40:55.346Z,39.57
2018-11-02T12:43:25.133Z,43.00
2018-11-02T12:45:54.866Z,41.33
2018-11-02T12:48:24.847Z,45.00
2018-11-02T12:55:20.010Z,18.30
2018-11-02T12:57:50.692Z,17.33
2018-11-02T13:00:23.160Z,12.97
2018-11-02T13:02:54.346Z,13.17
2018-11-02T13:05:24.765Z,14.50
2018-11-02T13:07:55.259Z,17.30
2018-11-02T13:10:25.786Z,14.00
2018-11-02T13:12:56.030Z,15.37
2018-11-02T13:15:26.857Z,13.23
2018-11-02T13:17:56.833Z,16.17
2018-11-02T13:20:27.102Z,12.70
2018-11-02T13:22:57.958Z,12.60
2018-11-02T13:25:28.635Z,10.40
2018-11-02T13:27:59.142Z,12.93
2018-11-02T13:30:29.791Z,15.67
2018-11-02T13:33:00.088Z,18.17
2018-11-02T13:35:30.763Z,13.17
2018-11-02T13:38:01.491Z,13.73
2018-11-02T13:40:31.885Z,14.50
2018-11-02T13:43:02.622Z,11.43
2018-11-02T13:45:33.175Z,11.13
2018-11-02T13:48:04.122Z,15.07
2018-11-02T13:50:34.803Z,13.47
2018-11-02T13:53:05.547Z,10.17
2018-11-02T13:55:36.223Z,10.57
2018-11-02T13:58:06.947Z,9.17
2018-11-02T14:00:37.639Z,11.70
2018-11-02T14:03:08.634Z,12.53
2018-11-02T14:05:39.213Z,10.67
2018-11-02T14:08:09.875Z,10.17
2018-11-02T14:10:40.567Z,10.30
2018-11-02T14:13:11.151Z,9.97
2018-11-02T14:15:41.870Z,10.27
2018-11-02T14:18:12.572Z,11.80
2018-11-02T14:20:43.173Z,11.47
2018-11-02T14:23:13.541Z,10.93
2018-11-02T14:25:44.517Z,10.10
2018-11-02T14:28:15.082Z,11.23
2018-11-02T14:30:45.895Z,10.37
2018-11-02T14:33:17.006Z,11.20
2018-11-02T14:35:47.979Z,10.20
2018-11-02T14:38:18.911Z,11.93
2018-11-02T14:40:49.818Z,9.70
2018-11-02T14:43:20.382Z,8.40
2018-11-02T14:45:51.030Z,10.97
2018-11-02T14:48:21.669Z,9.07
2018-11-02T14:50:52.490Z,9.93
2018-11-02T14:53:23.090Z,9.10
2018-11-02T14:55:54.032Z,9.97
2018-11-02T14:58:24.662Z,10.60
2018-11-02T15:00:55.354Z,8.63
2018-11-02T15:03:26.025Z,9.93
2018-11-02T15:05:56.546Z,12.43
2018-11-02T15:08:27.323Z,11.43
2018-11-02T15:10:57.970Z,9.73
2018-11-02T15:13:28.673Z,9.50
2018-11-02T15:15:59.706Z,9.93
2018-11-02T15:18:30.919Z,12.70
2018-11-02T15:21:01.762Z,10.90
2018-11-02T15:23:32.454Z,9.50
2018-11-02T15:26:03.067Z,9.37
2018-11-02T15:28:33.747Z,8.43
2018-11-02T15:31:04.523Z,8.97
2018-11-02T15:33:35.154Z,9.13
2018-11-02T15:36:06.674Z,9.70
2018-11-02T15:38:37.645Z,23.03
2018-11-02T15:41:08.461Z,13.27
2018-11-02T15:43:39.304Z,12.63
2018-11-02T15:46:09.992Z,11.63
2018-11-02T15:48:40.621Z,11.10
2018-11-02T15:51:11.278Z,10.37
2018-11-02T15:53:42.014Z,10.63
2018-11-02T15:56:12.961Z,9.67
2018-11-02T15:58:43.470Z,10.10
2018-11-02T16:01:14.144Z,13.53
2018-11-02T16:03:44.997Z,10.10
2018-11-02T16:06:17.203Z,9.70
2018-11-02T16:08:48.290Z,11.10
2018-11-02T16:11:19.292Z,13.33
2018-11-02T16:13:49.984Z,10.40
2018-11-02T16:16:21.040Z,11.67
2018-11-02T16:18:51.741Z,9.07
2018-11-02T16:21:22.974Z,11.37
2018-11-02T16:23:53.911Z,11.13
2018-11-02T16:26:24.932Z,11.43
2018-11-02T16:28:56.140Z,10.53
2018-11-02T16:31:27.298Z,9.60
2018-11-02T16:33:58.223Z,8.60
2018-11-02T16:36:29.130Z,11.73
2018-11-02T16:38:59.866Z,10.33
2018-11-02T16:41:31.133Z,10.17
2018-11-02T16:44:02.857Z,8.73
2018-11-02T16:46:34.062Z,9.47
2018-11-02T16:49:05.183Z,8.33
2018-11-02T16:51:37.316Z,8.53
2018-11-02T16:54:09.634Z,7.03
2018-11-02T16:56:40.783Z,8.23
2018-11-02T16:59:11.324Z,7.87
2018-11-02T17:01:43.118Z,7.13
2018-11-02T17:04:14.239Z,8.17
2018-11-02T17:06:45.078Z,9.33
2018-11-02T17:09:17.298Z,9.07
2018-11-02T17:11:48.398Z,6.90
2018-11-02T17:14:19.321Z,6.73
2018-11-02T17:16:50.238Z,6.87
2018-11-02T17:19:21.470Z,10.17
2018-11-02T17:21:52.224Z,23.33
2018-11-02T17:24:24.294Z,8.73
2018-11-02T17:26:55.126Z,8.50
2018-11-02T17:29:25.820Z,8.27
2018-11-02T17:31:57.796Z,7.93
2018-11-02T17:34:28.615Z,7.53
2018-11-02T17:36:59.489Z,7.63
2018-11-02T17:39:30.299Z,6.97
2018-11-02T17:42:01.017Z,5.40
2018-11-02T17:44:32.162Z,7.87
2018-11-02T18:29:47.252Z,16.80
2018-11-02T18:32:18.307Z,17.93
2018-11-02T18:34:51.138Z,17.37
2018-11-02T18:37:23.249Z,21.93
2018-11-02T18:39:54.038Z,25.93
2018-11-02T18:42:24.851Z,20.87
2018-11-02T18:44:55.535Z,21.77
2018-11-02T18:47:31.667Z,22.97
2018-11-02T18:50:02.897Z,21.10
2018-11-02T18:52:34.793Z,24.57
2018-11-02T18:55:06.074Z,20.23
2018-11-02T18:57:37.536Z,20.73
2018-11-02T19:00:11.917Z,25.13
2018-11-02T19:02:43.793Z,32.73
2018-11-02T19:05:17.733Z,29.17
2018-11-02T19:07:49.074Z,24.43
2018-11-02T19:10:21.704Z,29.03
2018-11-02T19:12:53.142Z,30.77
2018-11-02T19:15:26.209Z,27.47
2018-11-02T19:17:57.751Z,31.47
2018-11-02T19:20:29.631Z,30.10
2018-11-02T19:23:01.595Z,28.17
2018-11-02T19:25:33.391Z,28.47
2018-11-02T19:28:05.343Z,33.50
2018-11-02T19:30:37.374Z,26.33
2018-11-02T19:33:08.548Z,32.30
2018-11-02T19:35:42.720Z,35.53
2018-11-02T19:38:13.687Z,28.97
2018-11-02T19:40:45.379Z,34.98
2018-11-02T19:43:16.658Z,30.03
2018-11-02T19:45:47.883Z,35.73
2018-11-02T19:48:18.788Z,33.43
2018-11-02T19:50:49.825Z,31.33
2018-11-02T19:53:20.999Z,30.00
2018-11-02T19:55:52.114Z,38.67
2018-11-02T19:58:24.871Z,34.57
2018-11-02T20:00:57.296Z,34.73
2018-11-02T20:03:28.416Z,32.78
2018-11-02T20:05:59.398Z,30.53
2018-11-02T20:08:30.251Z,25.93
2018-11-02T20:11:02.267Z,31.57
2018-11-02T20:13:33.117Z,27.97
2018-11-02T20:16:03.992Z,30.70
2018-11-02T20:18:34.930Z,29.17
2018-11-02T20:21:06.232Z,34.57
2018-11-02T20:23:37.232Z,26.43
2018-11-02T20:26:07.903Z,22.83
2018-11-02T20:28:40.425Z,28.40
2018-11-02T20:31:11.695Z,31.33
2018-11-02T20:33:42.743Z,24.27
2018-11-02T20:36:13.645Z,22.53
2018-11-02T20:38:44.348Z,23.90
2018-11-02T20:41:15.145Z,31.77
2018-11-02T20:43:45.893Z,30.60
2018-11-02T20:46:17.377Z,23.10
2018-11-02T20:48:48.455Z,22.80
2018-11-02T20:51:19.369Z,22.77
2018-11-02T20:53:50.434Z,24.50
2018-11-02T20:56:21.683Z,26.80
2018-11-02T20:58:52.495Z,22.33
2018-11-02T21:01:23.614Z,27.43
2018-11-02T21:03:54.330Z,21.37
2018-11-02T21:06:26.238Z,23.03
2018-11-02T21:08:58.093Z,27.80
2018-11-02T21:11:28.928Z,30.27
2018-11-02T21:13:59.818Z,26.00
2018-11-02T21:16:30.717Z,28.20
2018-11-02T21:19:01.330Z,23.50
2018-11-02T21:21:32.903Z,25.53
2018-11-02T21:24:04.101Z,30.77
2018-11-02T21:26:35.333Z,32.50
2018-11-02T21:29:07.016Z,28.03
2018-11-02T21:31:38.289Z,25.60
2018-11-02T21:34:10.134Z,29.00
2018-11-02T21:36:41.316Z,28.27
2018-11-02T21:39:13.524Z,25.67
2018-11-02T21:41:44.301Z,29.47
2018-11-02T21:44:15.189Z,26.67
2018-11-02T21:46:46.613Z,27.90
2018-11-02T21:49:18.618Z,26.17
2018-11-02T21:51:49.786Z,31.23
2018-11-02T21:54:20.715Z,27.10
2018-11-02T21:56:51.795Z,23.40
2018-11-02T21:59:23.512Z,30.13
2018-11-02T22:01:55.579Z,26.17
2018-11-02T22:04:26.367Z,27.13
2018-11-02T22:06:57.758Z,25.37
2018-11-02T22:09:28.942Z,27.10
2018-11-02T22:12:01.340Z,36.77
2018-11-02T22:14:32.178Z,26.23
2018-11-02T22:17:03.201Z,25.97
2018-11-02T22:19:36.030Z,27.33
2018-11-02T22:22:07.001Z,26.80
2018-11-02T22:24:38.383Z,25.10
2018-11-02T22:27:09.441Z,28.47
2018-11-02T22:29:40.481Z,28.30
2018-11-02T22:32:11.314Z,28.77
2018-11-02T22:34:42.136Z,24.23
2018-11-02T22:37:13.074Z,25.97
2018-11-02T22:39:43.534Z,25.10
2018-11-02T22:42:14.391Z,24.60
2018-11-02T22:44:45.510Z,29.03
2018-11-02T22:47:16.474Z,25.33
2018-11-02T22:49:47.183Z,25.97
2018-11-02T22:52:17.834Z,25.03
2018-11-02T22:54:48.521Z,26.07
2018-11-02T22:57:19.290Z,25.07
2018-11-02T22:59:49.915Z,27.60
2018-11-02T23:02:20.561Z,27.37
2018-11-02T23:04:51.252Z,24.93
2018-11-02T23:07:21.909Z,23.60
2018-11-02T23:09:52.526Z,27.87
2018-11-02T23:12:23.025Z,25.67
2018-11-02T23:14:53.682Z,28.80
2018-11-02T23:17:24.114Z,24.53
2018-11-02T23:19:54.703Z,23.37
2018-11-02T23:22:25.403Z,23.50
2018-11-02T23:24:56.105Z,22.67
2018-11-02T23:27:26.646Z,23.77
2018-11-02T23:29:57.286Z,18.40
2018-11-02T23:32:27.734Z,22.67
2018-11-02T23:34:58.201Z,23.27
2018-11-02T23:37:28.324Z,20.87
2018-11-02T23:39:58.074Z,25.13
2018-11-02T23:42:27.700Z,24.07
2018-11-02T23:44:57.151Z,20.80
2018-11-02T23:47:26.578Z,31.10
2018-11-02T23:49:56.181Z,20.57
2018-11-02T23:52:26.188Z,22.60
2018-11-02T23:54:56.046Z,22.33
2018-11-02T23:57:25.446Z,22.03
2018-11-02T23:59:54.950Z,23.27
